sensor_id;sensor_type;location;lat;lon;timestamp;P1;durP1;ratioP1;P2;durP2;ratioP2
5616;SDS011;2830;50.656;7.568;2023-03-05T00:01:06;17.48;;;5.55;;
5616;SDS011;2830;50.656;7.568;2023-03-05T00:03:34;17.98;;;5.80;;
5616;SDS011;2830;50.656;7.568;2023-03-05T00:06:04;18.10;;;6.00;;
5616;SDS011;2830;50.656;7.568;2023-03-05T00:08:31;26.20;;;5.60;;
5616;SDS011;2830;50.656;7.568;2023-03-05T00:10:58;17.38;;;6.32;;
5616;SDS011;2830;50.656;7.568;2023-03-05T00:13:27;19.10;;;5.60;;
5616;SDS011;2830;50.656;7.568;2023-03-05T00:15:55;22.05;;;6.78;;
5616;SDS011;2830;50.656;7.568;2023-03-05T00:18:22;15.02;;;5.65;;
5616;SDS011;2830;50.656;7.568;2023-03-05T00:20:55;13.98;;;5.35;;
5616;SDS011;2830;50.656;7.568;2023-03-05T00:23:22;14.13;;;5.10;;
5616;SDS011;2830;50.656;7.568;2023-03-05T00:25:49;15.98;;;5.65;;
5616;SDS011;2830;50.656;7.568;2023-03-05T00:28:15;17.70;;;5.43;;
5616;SDS011;2830;50.656;7.568;2023-03-05T00:30:42;21.58;;;5.60;;
5616;SDS011;2830;50.656;7.568;2023-03-05T00:33:09;16.90;;;5.22;;
5616;SDS011;2830;50.656;7.568;2023-03-05T00:35:38;13.23;;;5.50;;
5616;SDS011;2830;50.656;7.568;2023-03-05T00:38:06;13.57;;;4.68;;
5616;SDS011;2830;50.656;7.568;2023-03-05T00:40:34;15.15;;;5.60;;
5616;SDS011;2830;50.656;7.568;2023-03-05T00:43:02;17.05;;;5.13;;
5616;SDS011;2830;50.656;7.568;2023-03-05T00:45:29;19.10;;;5.65;;
5616;SDS011;2830;50.656;7.568;2023-03-05T00:47:56;14.82;;;5.07;;
5616;SDS011;2830;50.656;7.568;2023-03-05T00:50:23;16.15;;;5.00;;
5616;SDS011;2830;50.656;7.568;2023-03-05T00:52:50;18.33;;;6.75;;
5616;SDS011;2830;50.656;7.568;2023-03-05T00:55:17;14.77;;;5.10;;
5616;SDS011;2830;50.656;7.568;2023-03-05T00:57:44;18.27;;;5.53;;
5616;SDS011;2830;50.656;7.568;2023-03-05T01:00:11;15.55;;;5.40;;
5616;SDS011;2830;50.656;7.568;2023-03-05T01:02:39;17.70;;;5.82;;
5616;SDS011;2830;50.656;7.568;2023-03-05T01:05:13;14.90;;;4.88;;
5616;SDS011;2830;50.656;7.568;2023-03-05T01:07:40;14.77;;;6.18;;
5616;SDS011;2830;50.656;7.568;2023-03-05T01:10:07;16.70;;;6.20;;
5616;SDS011;2830;50.656;7.568;2023-03-05T01:12:35;17.80;;;5.93;;
5616;SDS011;2830;50.656;7.568;2023-03-05T01:15:02;21.75;;;6.35;;
5616;SDS011;2830;50.656;7.568;2023-03-05T01:17:29;21.30;;;7.13;;
5616;SDS011;2830;50.656;7.568;2023-03-05T01:19:55;18.85;;;6.90;;
5616;SDS011;2830;50.656;7.568;2023-03-05T01:22:22;18.58;;;6.43;;
5616;SDS011;2830;50.656;7.568;2023-03-05T01:24:49;20.58;;;7.88;;
5616;SDS011;2830;50.656;7.568;2023-03-05T01:27:15;19.63;;;6.88;;
5616;SDS011;2830;50.656;7.568;2023-03-05T01:29:42;23.27;;;6.72;;
5616;SDS011;2830;50.656;7.568;2023-03-05T01:32:09;22.35;;;7.80;;
5616;SDS011;2830;50.656;7.568;2023-03-05T01:34:35;23.08;;;6.47;;
5616;SDS011;2830;50.656;7.568;2023-03-05T01:37:02;27.65;;;7.07;;
5616;SDS011;2830;50.656;7.568;2023-03-05T01:39:30;21.80;;;6.05;;
5616;SDS011;2830;50.656;7.568;2023-03-05T01:41:57;27.85;;;6.78;;
5616;SDS011;2830;50.656;7.568;2023-03-05T01:44:25;17.98;;;5.35;;
5616;SDS011;2830;50.656;7.568;2023-03-05T01:46:54;16.55;;;4.70;;
5616;SDS011;2830;50.656;7.568;2023-03-05T01:49:22;17.73;;;5.05;;
5616;SDS011;2830;50.656;7.568;2023-03-05T01:51:59;17.65;;;5.65;;
5616;SDS011;2830;50.656;7.568;2023-03-05T01:54:34;22.13;;;5.90;;
5616;SDS011;2830;50.656;7.568;2023-03-05T01:57:06;14.63;;;5.70;;
5616;SDS011;2830;50.656;7.568;2023-03-05T01:59:36;13.02;;;4.45;;
5616;SDS011;2830;50.656;7.568;2023-03-05T02:02:05;15.18;;;5.30;;
5616;SDS011;2830;50.656;7.568;2023-03-05T02:04:40;20.33;;;6.28;;
5616;SDS011;2830;50.656;7.568;2023-03-05T02:07:11;17.63;;;6.00;;
5616;SDS011;2830;50.656;7.568;2023-03-05T02:09:39;15.70;;;5.45;;
5616;SDS011;2830;50.656;7.568;2023-03-05T02:12:07;19.73;;;5.32;;
5616;SDS011;2830;50.656;7.568;2023-03-05T02:14:35;17.33;;;6.10;;
5616;SDS011;2830;50.656;7.568;2023-03-05T02:17:04;17.63;;;5.22;;
5616;SDS011;2830;50.656;7.568;2023-03-05T02:19:44;22.33;;;5.22;;
5616;SDS011;2830;50.656;7.568;2023-03-05T02:22:16;19.00;;;5.32;;
5616;SDS011;2830;50.656;7.568;2023-03-05T02:24:44;14.30;;;4.63;;
5616;SDS011;2830;50.656;7.568;2023-03-05T02:27:11;18.15;;;5.10;;
5616;SDS011;2830;50.656;7.568;2023-03-05T02:29:40;16.92;;;5.93;;
5616;SDS011;2830;50.656;7.568;2023-03-05T02:32:08;15.70;;;5.35;;
5616;SDS011;2830;50.656;7.568;2023-03-05T02:34:35;17.35;;;5.90;;
5616;SDS011;2830;50.656;7.568;2023-03-05T02:37:02;15.98;;;4.35;;
5616;SDS011;2830;50.656;7.568;2023-03-05T02:39:30;15.65;;;5.15;;
5616;SDS011;2830;50.656;7.568;2023-03-05T02:41:57;16.05;;;4.72;;
5616;SDS011;2830;50.656;7.568;2023-03-05T02:44:23;17.30;;;4.65;;
5616;SDS011;2830;50.656;7.568;2023-03-05T02:46:50;15.73;;;5.18;;
5616;SDS011;2830;50.656;7.568;2023-03-05T02:49:17;16.52;;;5.05;;
5616;SDS011;2830;50.656;7.568;2023-03-05T02:51:44;17.48;;;5.07;;
5616;SDS011;2830;50.656;7.568;2023-03-05T02:54:10;14.80;;;4.72;;
5616;SDS011;2830;50.656;7.568;2023-03-05T02:56:37;17.35;;;5.25;;
5616;SDS011;2830;50.656;7.568;2023-03-05T02:59:04;17.40;;;5.32;;
5616;SDS011;2830;50.656;7.568;2023-03-05T03:01:31;16.38;;;5.45;;
5616;SDS011;2830;50.656;7.568;2023-03-05T03:03:57;17.15;;;6.10;;
5616;SDS011;2830;50.656;7.568;2023-03-05T03:06:24;16.95;;;5.20;;
5616;SDS011;2830;50.656;7.568;2023-03-05T03:08:51;20.25;;;6.03;;
5616;SDS011;2830;50.656;7.568;2023-03-05T03:11:18;21.35;;;6.20;;
5616;SDS011;2830;50.656;7.568;2023-03-05T03:13:46;22.52;;;6.30;;
5616;SDS011;2830;50.656;7.568;2023-03-05T03:16:13;18.17;;;7.00;;
5616;SDS011;2830;50.656;7.568;2023-03-05T03:18:41;28.13;;;10.63;;
5616;SDS011;2830;50.656;7.568;2023-03-05T03:21:14;27.40;;;10.02;;
5616;SDS011;2830;50.656;7.568;2023-03-05T03:23:45;27.70;;;11.75;;
5616;SDS011;2830;50.656;7.568;2023-03-05T03:26:12;32.83;;;10.50;;
5616;SDS011;2830;50.656;7.568;2023-03-05T03:28:38;23.25;;;9.75;;
5616;SDS011;2830;50.656;7.568;2023-03-05T03:31:05;27.85;;;11.73;;
5616;SDS011;2830;50.656;7.568;2023-03-05T03:33:32;27.67;;;10.57;;
5616;SDS011;2830;50.656;7.568;2023-03-05T03:35:58;25.65;;;9.80;;
5616;SDS011;2830;50.656;7.568;2023-03-05T03:38:25;26.30;;;9.23;;
5616;SDS011;2830;50.656;7.568;2023-03-05T03:40:52;23.23;;;9.45;;
5616;SDS011;2830;50.656;7.568;2023-03-05T03:43:18;24.98;;;8.65;;
5616;SDS011;2830;50.656;7.568;2023-03-05T03:45:45;25.08;;;8.90;;
5616;SDS011;2830;50.656;7.568;2023-03-05T03:48:12;22.55;;;7.65;;
5616;SDS011;2830;50.656;7.568;2023-03-05T03:50:39;24.35;;;8.18;;
5616;SDS011;2830;50.656;7.568;2023-03-05T03:53:06;19.52;;;7.80;;
5616;SDS011;2830;50.656;7.568;2023-03-05T03:55:33;19.10;;;7.32;;
5616;SDS011;2830;50.656;7.568;2023-03-05T03:58:00;18.20;;;7.85;;
5616;SDS011;2830;50.656;7.568;2023-03-05T04:00:27;21.25;;;8.10;;
5616;SDS011;2830;50.656;7.568;2023-03-05T04:02:54;18.23;;;6.95;;
5616;SDS011;2830;50.656;7.568;2023-03-05T04:05:20;18.90;;;8.65;;
5616;SDS011;2830;50.656;7.568;2023-03-05T04:07:47;26.48;;;8.20;;
5616;SDS011;2830;50.656;7.568;2023-03-05T04:10:13;18.27;;;7.80;;
5616;SDS011;2830;50.656;7.568;2023-03-05T04:12:40;23.20;;;7.80;;
5616;SDS011;2830;50.656;7.568;2023-03-05T04:15:08;18.40;;;7.70;;
5616;SDS011;2830;50.656;7.568;2023-03-05T04:17:35;20.45;;;8.00;;
5616;SDS011;2830;50.656;7.568;2023-03-05T04:20:03;20.75;;;7.45;;
5616;SDS011;2830;50.656;7.568;2023-03-05T04:22:31;18.23;;;8.23;;
5616;SDS011;2830;50.656;7.568;2023-03-05T04:24:57;14.60;;;6.07;;
5616;SDS011;2830;50.656;7.568;2023-03-05T04:27:24;15.73;;;6.20;;
5616;SDS011;2830;50.656;7.568;2023-03-05T04:29:51;20.85;;;7.47;;
5616;SDS011;2830;50.656;7.568;2023-03-05T04:32:17;19.92;;;8.32;;
5616;SDS011;2830;50.656;7.568;2023-03-05T04:34:48;22.08;;;7.30;;
5616;SDS011;2830;50.656;7.568;2023-03-05T04:37:15;16.92;;;6.63;;
5616;SDS011;2830;50.656;7.568;2023-03-05T04:39:41;17.70;;;6.97;;
5616;SDS011;2830;50.656;7.568;2023-03-05T04:42:08;24.05;;;6.65;;
5616;SDS011;2830;50.656;7.568;2023-03-05T04:44:35;18.10;;;7.22;;
5616;SDS011;2830;50.656;7.568;2023-03-05T04:47:02;17.58;;;6.43;;
5616;SDS011;2830;50.656;7.568;2023-03-05T04:49:28;17.52;;;6.47;;
5616;SDS011;2830;50.656;7.568;2023-03-05T04:51:55;21.08;;;6.55;;
5616;SDS011;2830;50.656;7.568;2023-03-05T04:54:23;16.65;;;6.15;;
5616;SDS011;2830;50.656;7.568;2023-03-05T04:56:50;18.52;;;6.47;;
5616;SDS011;2830;50.656;7.568;2023-03-05T04:59:16;19.33;;;5.63;;
5616;SDS011;2830;50.656;7.568;2023-03-05T05:01:44;21.17;;;6.55;;
5616;SDS011;2830;50.656;7.568;2023-03-05T05:04:11;14.30;;;5.22;;
5616;SDS011;2830;50.656;7.568;2023-03-05T05:06:37;16.17;;;5.63;;
5616;SDS011;2830;50.656;7.568;2023-03-05T05:09:04;26.58;;;4.90;;
5616;SDS011;2830;50.656;7.568;2023-03-05T05:11:30;18.77;;;5.57;;
5616;SDS011;2830;50.656;7.568;2023-03-05T05:13:57;16.67;;;5.55;;
5616;SDS011;2830;50.656;7.568;2023-03-05T05:16:24;17.95;;;4.70;;
5616;SDS011;2830;50.656;7.568;2023-03-05T05:18:50;18.25;;;5.15;;
5616;SDS011;2830;50.656;7.568;2023-03-05T05:21:17;17.25;;;4.93;;
5616;SDS011;2830;50.656;7.568;2023-03-05T05:23:45;17.02;;;4.82;;
5616;SDS011;2830;50.656;7.568;2023-03-05T05:26:12;15.32;;;5.10;;
5616;SDS011;2830;50.656;7.568;2023-03-05T05:28:40;16.38;;;5.40;;
5616;SDS011;2830;50.656;7.568;2023-03-05T05:31:09;25.30;;;4.93;;
5616;SDS011;2830;50.656;7.568;2023-03-05T05:33:37;22.90;;;5.85;;
5616;SDS011;2830;50.656;7.568;2023-03-05T05:36:05;21.52;;;6.03;;
5616;SDS011;2830;50.656;7.568;2023-03-05T05:38:33;15.77;;;4.97;;
5616;SDS011;2830;50.656;7.568;2023-03-05T05:43:32;18.23;;;4.88;;
5616;SDS011;2830;50.656;7.568;2023-03-05T05:45:59;14.85;;;6.03;;
5616;SDS011;2830;50.656;7.568;2023-03-05T05:48:28;17.58;;;5.45;;
5616;SDS011;2830;50.656;7.568;2023-03-05T05:50:56;15.98;;;4.22;;
5616;SDS011;2830;50.656;7.568;2023-03-05T05:53:24;21.52;;;4.50;;
5616;SDS011;2830;50.656;7.568;2023-03-05T05:55:51;16.58;;;4.45;;
5616;SDS011;2830;50.656;7.568;2023-03-05T05:58:18;17.98;;;4.60;;
5616;SDS011;2830;50.656;7.568;2023-03-05T06:00:44;15.10;;;4.55;;
5616;SDS011;2830;50.656;7.568;2023-03-05T06:03:11;19.88;;;4.90;;
5616;SDS011;2830;50.656;7.568;2023-03-05T06:05:39;12.20;;;4.32;;
5616;SDS011;2830;50.656;7.568;2023-03-05T06:08:07;15.27;;;3.70;;
5616;SDS011;2830;50.656;7.568;2023-03-05T06:10:34;18.30;;;4.25;;
5616;SDS011;2830;50.656;7.568;2023-03-05T06:13:01;16.85;;;4.38;;
5616;SDS011;2830;50.656;7.568;2023-03-05T06:15:27;13.82;;;3.75;;
5616;SDS011;2830;50.656;7.568;2023-03-05T06:17:54;21.77;;;4.03;;
5616;SDS011;2830;50.656;7.568;2023-03-05T06:20:21;13.43;;;3.63;;
5616;SDS011;2830;50.656;7.568;2023-03-05T06:22:48;16.48;;;3.65;;
5616;SDS011;2830;50.656;7.568;2023-03-05T06:25:14;14.93;;;3.78;;
5616;SDS011;2830;50.656;7.568;2023-03-05T06:27:41;18.10;;;4.75;;
5616;SDS011;2830;50.656;7.568;2023-03-05T06:30:08;16.27;;;3.15;;
5616;SDS011;2830;50.656;7.568;2023-03-05T06:32:36;16.77;;;3.78;;
5616;SDS011;2830;50.656;7.568;2023-03-05T06:35:03;17.48;;;3.83;;
5616;SDS011;2830;50.656;7.568;2023-03-05T06:37:30;18.95;;;3.88;;
5616;SDS011;2830;50.656;7.568;2023-03-05T06:39:57;19.60;;;3.28;;
5616;SDS011;2830;50.656;7.568;2023-03-05T06:42:23;14.73;;;4.30;;
5616;SDS011;2830;50.656;7.568;2023-03-05T06:44:50;17.13;;;4.03;;
5616;SDS011;2830;50.656;7.568;2023-03-05T06:47:17;11.75;;;3.60;;
5616;SDS011;2830;50.656;7.568;2023-03-05T06:49:43;13.90;;;3.50;;
5616;SDS011;2830;50.656;7.568;2023-03-05T06:52:10;14.98;;;3.83;;
5616;SDS011;2830;50.656;7.568;2023-03-05T06:54:37;12.93;;;3.65;;
5616;SDS011;2830;50.656;7.568;2023-03-05T06:57:04;15.52;;;5.65;;
5616;SDS011;2830;50.656;7.568;2023-03-05T06:59:31;13.65;;;4.40;;
5616;SDS011;2830;50.656;7.568;2023-03-05T07:01:58;12.07;;;3.47;;
5616;SDS011;2830;50.656;7.568;2023-03-05T07:04:25;10.18;;;2.83;;
5616;SDS011;2830;50.656;7.568;2023-03-05T07:06:51;16.33;;;3.65;;
5616;SDS011;2830;50.656;7.568;2023-03-05T07:09:18;12.18;;;3.40;;
5616;SDS011;2830;50.656;7.568;2023-03-05T07:11:45;11.30;;;3.28;;
5616;SDS011;2830;50.656;7.568;2023-03-05T07:14:11;16.83;;;2.72;;
5616;SDS011;2830;50.656;7.568;2023-03-05T07:16:38;14.38;;;2.97;;
5616;SDS011;2830;50.656;7.568;2023-03-05T07:19:05;13.13;;;3.25;;
5616;SDS011;2830;50.656;7.568;2023-03-05T07:21:33;11.70;;;2.97;;
5616;SDS011;2830;50.656;7.568;2023-03-05T07:24:04;13.40;;;3.05;;
5616;SDS011;2830;50.656;7.568;2023-03-05T07:26:31;17.55;;;3.55;;
5616;SDS011;2830;50.656;7.568;2023-03-05T07:28:58;16.60;;;3.17;;
5616;SDS011;2830;50.656;7.568;2023-03-05T07:31:26;15.43;;;3.22;;
5616;SDS011;2830;50.656;7.568;2023-03-05T07:33:56;11.93;;;3.17;;
5616;SDS011;2830;50.656;7.568;2023-03-05T07:36:24;10.48;;;3.10;;
5616;SDS011;2830;50.656;7.568;2023-03-05T07:38:52;11.60;;;2.60;;
5616;SDS011;2830;50.656;7.568;2023-03-05T07:41:20;11.70;;;2.80;;
5616;SDS011;2830;50.656;7.568;2023-03-05T07:43:49;9.32;;;2.40;;
5616;SDS011;2830;50.656;7.568;2023-03-05T07:46:17;17.55;;;2.70;;
5616;SDS011;2830;50.656;7.568;2023-03-05T07:48:45;14.82;;;2.92;;
5616;SDS011;2830;50.656;7.568;2023-03-05T07:51:14;10.63;;;3.20;;
5616;SDS011;2830;50.656;7.568;2023-03-05T07:53:42;15.40;;;3.60;;
5616;SDS011;2830;50.656;7.568;2023-03-05T07:56:10;19.88;;;4.35;;
5616;SDS011;2830;50.656;7.568;2023-03-05T07:58:37;11.40;;;3.67;;
5616;SDS011;2830;50.656;7.568;2023-03-05T08:01:09;10.38;;;2.95;;
5616;SDS011;2830;50.656;7.568;2023-03-05T08:03:39;16.17;;;3.63;;
5616;SDS011;2830;50.656;7.568;2023-03-05T08:06:07;12.23;;;3.53;;
5616;SDS011;2830;50.656;7.568;2023-03-05T08:08:35;11.63;;;2.85;;
5616;SDS011;2830;50.656;7.568;2023-03-05T08:11:06;15.40;;;4.07;;
5616;SDS011;2830;50.656;7.568;2023-03-05T08:13:34;14.00;;;3.13;;
5616;SDS011;2830;50.656;7.568;2023-03-05T08:16:05;12.70;;;3.65;;
5616;SDS011;2830;50.656;7.568;2023-03-05T08:18:33;12.75;;;3.40;;
5616;SDS011;2830;50.656;7.568;2023-03-05T08:21:00;12.60;;;3.28;;
5616;SDS011;2830;50.656;7.568;2023-03-05T08:23:27;14.48;;;3.80;;
5616;SDS011;2830;50.656;7.568;2023-03-05T08:25:54;16.75;;;4.35;;
5616;SDS011;2830;50.656;7.568;2023-03-05T08:28:24;12.73;;;3.70;;
5616;SDS011;2830;50.656;7.568;2023-03-05T08:30:51;13.50;;;4.78;;
5616;SDS011;2830;50.656;7.568;2023-03-05T08:33:18;15.13;;;4.05;;
5616;SDS011;2830;50.656;7.568;2023-03-05T08:35:44;13.45;;;4.75;;
5616;SDS011;2830;50.656;7.568;2023-03-05T08:38:11;14.60;;;4.10;;
5616;SDS011;2830;50.656;7.568;2023-03-05T08:40:38;16.83;;;5.40;;
5616;SDS011;2830;50.656;7.568;2023-03-05T08:43:05;17.00;;;6.80;;
5616;SDS011;2830;50.656;7.568;2023-03-05T08:45:32;19.38;;;5.35;;
5616;SDS011;2830;50.656;7.568;2023-03-05T08:47:59;17.50;;;5.30;;
5616;SDS011;2830;50.656;7.568;2023-03-05T08:50:25;16.48;;;4.80;;
5616;SDS011;2830;50.656;7.568;2023-03-05T08:52:52;15.70;;;5.78;;
5616;SDS011;2830;50.656;7.568;2023-03-05T08:55:19;14.63;;;4.95;;
5616;SDS011;2830;50.656;7.568;2023-03-05T08:57:45;15.88;;;5.18;;
5616;SDS011;2830;50.656;7.568;2023-03-05T09:00:12;15.90;;;5.10;;
5616;SDS011;2830;50.656;7.568;2023-03-05T09:02:39;13.95;;;4.50;;
5616;SDS011;2830;50.656;7.568;2023-03-05T09:05:08;15.30;;;5.30;;
5616;SDS011;2830;50.656;7.568;2023-03-05T09:07:35;15.85;;;4.72;;
5616;SDS011;2830;50.656;7.568;2023-03-05T09:10:03;14.27;;;4.18;;
5616;SDS011;2830;50.656;7.568;2023-03-05T09:12:31;14.57;;;4.20;;
5616;SDS011;2830;50.656;7.568;2023-03-05T09:14:57;15.73;;;4.57;;
5616;SDS011;2830;50.656;7.568;2023-03-05T09:17:24;15.80;;;4.43;;
5616;SDS011;2830;50.656;7.568;2023-03-05T09:19:50;16.10;;;4.80;;
5616;SDS011;2830;50.656;7.568;2023-03-05T09:22:17;18.43;;;5.27;;
5616;SDS011;2830;50.656;7.568;2023-03-05T09:24:44;15.50;;;4.73;;
5616;SDS011;2830;50.656;7.568;2023-03-05T09:27:11;17.37;;;5.33;;
5616;SDS011;2830;50.656;7.568;2023-03-05T09:29:37;19.93;;;4.40;;
5616;SDS011;2830;50.656;7.568;2023-03-05T09:32:07;12.93;;;4.20;;
5616;SDS011;2830;50.656;7.568;2023-03-05T09:34:34;14.77;;;3.87;;
5616;SDS011;2830;50.656;7.568;2023-03-05T09:37:01;14.13;;;3.67;;
5616;SDS011;2830;50.656;7.568;2023-03-05T09:39:31;12.93;;;3.37;;
5616;SDS011;2830;50.656;7.568;2023-03-05T09:44:50;12.00;;;3.37;;
5616;SDS011;2830;50.656;7.568;2023-03-05T09:47:49;14.65;;;3.45;;
5616;SDS011;2830;50.656;7.568;2023-03-05T09:50:39;12.18;;;3.75;;
5616;SDS011;2830;50.656;7.568;2023-03-05T09:53:11;12.52;;;3.45;;
5616;SDS011;2830;50.656;7.568;2023-03-05T09:55:50;10.10;;;2.88;;
5616;SDS011;2830;50.656;7.568;2023-03-05T09:58:27;12.75;;;3.95;;
5616;SDS011;2830;50.656;7.568;2023-03-05T10:01:07;12.50;;;3.80;;
5616;SDS011;2830;50.656;7.568;2023-03-05T10:06:25;11.65;;;3.10;;
5616;SDS011;2830;50.656;7.568;2023-03-05T10:11:44;12.32;;;3.05;;
5616;SDS011;2830;50.656;7.568;2023-03-05T10:14:37;11.77;;;4.10;;
5616;SDS011;2830;50.656;7.568;2023-03-05T10:22:24;10.32;;;2.75;;
5616;SDS011;2830;50.656;7.568;2023-03-05T10:27:47;11.95;;;2.67;;
5616;SDS011;2830;50.656;7.568;2023-03-05T10:36:28;9.93;;;2.25;;
5616;SDS011;2830;50.656;7.568;2023-03-05T10:42:22;10.52;;;2.50;;
5616;SDS011;2830;50.656;7.568;2023-03-05T10:44:59;11.25;;;3.22;;
5616;SDS011;2830;50.656;7.568;2023-03-05T10:47:50;14.30;;;2.73;;
5616;SDS011;2830;50.656;7.568;2023-03-05T10:50:22;9.48;;;2.00;;
5616;SDS011;2830;50.656;7.568;2023-03-05T10:52:53;12.53;;;2.60;;
5616;SDS011;2830;50.656;7.568;2023-03-05T10:55:39;9.90;;;2.33;;
5616;SDS011;2830;50.656;7.568;2023-03-05T10:58:14;14.43;;;3.30;;
5616;SDS011;2830;50.656;7.568;2023-03-05T11:01:03;12.57;;;2.90;;
5616;SDS011;2830;50.656;7.568;2023-03-05T11:04:05;13.45;;;2.95;;
5616;SDS011;2830;50.656;7.568;2023-03-05T11:09:19;14.33;;;3.50;;
5616;SDS011;2830;50.656;7.568;2023-03-05T11:12:09;12.85;;;3.38;;
5616;SDS011;2830;50.656;7.568;2023-03-05T11:14:40;16.70;;;2.67;;
5616;SDS011;2830;50.656;7.568;2023-03-05T11:17:23;12.93;;;3.20;;
5616;SDS011;2830;50.656;7.568;2023-03-05T11:19:52;13.52;;;3.08;;
5616;SDS011;2830;50.656;7.568;2023-03-05T11:22:22;18.60;;;4.07;;
5616;SDS011;2830;50.656;7.568;2023-03-05T11:25:04;12.18;;;3.40;;
5616;SDS011;2830;50.656;7.568;2023-03-05T11:27:50;13.45;;;3.60;;
5616;SDS011;2830;50.656;7.568;2023-03-05T11:30:24;12.80;;;3.38;;
5616;SDS011;2830;50.656;7.568;2023-03-05T11:33:15;14.05;;;4.07;;
5616;SDS011;2830;50.656;7.568;2023-03-05T11:35:46;12.93;;;3.85;;
5616;SDS011;2830;50.656;7.568;2023-03-05T11:38:24;13.82;;;4.20;;
5616;SDS011;2830;50.656;7.568;2023-03-05T11:40:53;16.77;;;4.18;;
5616;SDS011;2830;50.656;7.568;2023-03-05T11:43:22;15.65;;;5.95;;
5616;SDS011;2830;50.656;7.568;2023-03-05T11:45:52;12.93;;;4.03;;
5616;SDS011;2830;50.656;7.568;2023-03-05T11:48:27;13.55;;;4.45;;
5616;SDS011;2830;50.656;7.568;2023-03-05T11:51:00;11.90;;;4.00;;
5616;SDS011;2830;50.656;7.568;2023-03-05T11:53:31;16.80;;;4.30;;
5616;SDS011;2830;50.656;7.568;2023-03-05T11:56:05;15.60;;;4.30;;
5616;SDS011;2830;50.656;7.568;2023-03-05T12:01:38;12.52;;;4.20;;
5616;SDS011;2830;50.656;7.568;2023-03-05T12:04:09;12.88;;;4.80;;
5616;SDS011;2830;50.656;7.568;2023-03-05T12:11:46;14.45;;;5.13;;
5616;SDS011;2830;50.656;7.568;2023-03-05T12:17:07;13.27;;;4.82;;
5616;SDS011;2830;50.656;7.568;2023-03-05T12:20:01;13.65;;;5.13;;
5616;SDS011;2830;50.656;7.568;2023-03-05T12:22:36;15.88;;;5.25;;
5616;SDS011;2830;50.656;7.568;2023-03-05T12:27:50;12.32;;;4.50;;
5616;SDS011;2830;50.656;7.568;2023-03-05T12:30:59;11.88;;;4.10;;
5616;SDS011;2830;50.656;7.568;2023-03-05T12:38:54;15.43;;;4.70;;
5616;SDS011;2830;50.656;7.568;2023-03-05T12:46:36;14.55;;;4.35;;
5616;SDS011;2830;50.656;7.568;2023-03-05T12:51:47;12.48;;;4.90;;
5616;SDS011;2830;50.656;7.568;2023-03-05T12:57:21;12.20;;;4.15;;
5616;SDS011;2830;50.656;7.568;2023-03-05T12:59:57;18.17;;;4.60;;
5616;SDS011;2830;50.656;7.568;2023-03-05T13:02:31;11.93;;;4.60;;
5616;SDS011;2830;50.656;7.568;2023-03-05T13:05:03;10.88;;;4.40;;
5616;SDS011;2830;50.656;7.568;2023-03-05T13:07:39;13.95;;;5.80;;
5616;SDS011;2830;50.656;7.568;2023-03-05T13:10:05;10.27;;;3.78;;
5616;SDS011;2830;50.656;7.568;2023-03-05T13:12:49;16.20;;;5.55;;
5616;SDS011;2830;50.656;7.568;2023-03-05T13:15:18;12.00;;;5.35;;
5616;SDS011;2830;50.656;7.568;2023-03-05T13:17:59;12.35;;;5.03;;
5616;SDS011;2830;50.656;7.568;2023-03-05T13:20:30;13.55;;;4.90;;
5616;SDS011;2830;50.656;7.568;2023-03-05T13:25:32;11.80;;;4.60;;
5616;SDS011;2830;50.656;7.568;2023-03-05T13:28:08;12.38;;;5.25;;
5616;SDS011;2830;50.656;7.568;2023-03-05T13:30:37;14.57;;;5.15;;
5616;SDS011;2830;50.656;7.568;2023-03-05T13:33:05;13.75;;;4.90;;
5616;SDS011;2830;50.656;7.568;2023-03-05T13:35:42;13.30;;;4.57;;
5616;SDS011;2830;50.656;7.568;2023-03-05T13:38:25;13.18;;;6.05;;
5616;SDS011;2830;50.656;7.568;2023-03-05T13:43:30;15.05;;;6.45;;
5616;SDS011;2830;50.656;7.568;2023-03-05T13:45:57;13.90;;;6.75;;
5616;SDS011;2830;50.656;7.568;2023-03-05T13:48:25;15.38;;;6.63;;
5616;SDS011;2830;50.656;7.568;2023-03-05T13:50:57;13.90;;;6.55;;
5616;SDS011;2830;50.656;7.568;2023-03-05T13:56:01;14.65;;;6.82;;
5616;SDS011;2830;50.656;7.568;2023-03-05T14:01:31;13.70;;;6.45;;
5616;SDS011;2830;50.656;7.568;2023-03-05T14:06:45;14.05;;;6.35;;
5616;SDS011;2830;50.656;7.568;2023-03-05T14:09:43;13.20;;;6.00;;
5616;SDS011;2830;50.656;7.568;2023-03-05T14:14:56;14.48;;;6.82;;
5616;SDS011;2830;50.656;7.568;2023-03-05T14:17:38;15.10;;;6.35;;
5616;SDS011;2830;50.656;7.568;2023-03-05T14:20:17;14.77;;;6.25;;
5616;SDS011;2830;50.656;7.568;2023-03-05T14:22:49;14.02;;;6.82;;
5616;SDS011;2830;50.656;7.568;2023-03-05T14:25:25;15.80;;;6.15;;
5616;SDS011;2830;50.656;7.568;2023-03-05T14:27:55;16.38;;;6.82;;
5616;SDS011;2830;50.656;7.568;2023-03-05T14:30:22;14.80;;;6.60;;
5616;SDS011;2830;50.656;7.568;2023-03-05T14:32:51;16.75;;;6.80;;
5616;SDS011;2830;50.656;7.568;2023-03-05T14:35:22;15.07;;;6.95;;
5616;SDS011;2830;50.656;7.568;2023-03-05T14:37:51;14.52;;;6.45;;
5616;SDS011;2830;50.656;7.568;2023-03-05T14:40:30;15.10;;;6.00;;
5616;SDS011;2830;50.656;7.568;2023-03-05T14:43:02;20.25;;;10.35;;
5616;SDS011;2830;50.656;7.568;2023-03-05T14:45:32;16.63;;;6.90;;
5616;SDS011;2830;50.656;7.568;2023-03-05T14:48:02;14.45;;;6.80;;
5616;SDS011;2830;50.656;7.568;2023-03-05T14:50:36;16.27;;;6.82;;
5616;SDS011;2830;50.656;7.568;2023-03-05T14:53:11;14.23;;;7.38;;
5616;SDS011;2830;50.656;7.568;2023-03-05T14:55:40;15.25;;;8.27;;
5616;SDS011;2830;50.656;7.568;2023-03-05T14:58:14;17.30;;;7.38;;
5616;SDS011;2830;50.656;7.568;2023-03-05T15:00:43;17.67;;;7.07;;
5616;SDS011;2830;50.656;7.568;2023-03-05T15:03:11;18.98;;;8.27;;
5616;SDS011;2830;50.656;7.568;2023-03-05T15:05:39;18.88;;;8.32;;
5616;SDS011;2830;50.656;7.568;2023-03-05T15:08:09;16.90;;;8.45;;
5616;SDS011;2830;50.656;7.568;2023-03-05T15:10:43;17.05;;;8.80;;
5616;SDS011;2830;50.656;7.568;2023-03-05T15:13:11;20.10;;;8.00;;
5616;SDS011;2830;50.656;7.568;2023-03-05T15:15:40;17.73;;;9.63;;
5616;SDS011;2830;50.656;7.568;2023-03-05T15:18:09;18.58;;;8.50;;
5616;SDS011;2830;50.656;7.568;2023-03-05T15:20:38;15.32;;;7.93;;
5616;SDS011;2830;50.656;7.568;2023-03-05T15:23:05;17.83;;;8.40;;
5616;SDS011;2830;50.656;7.568;2023-03-05T15:25:33;18.83;;;7.50;;
5616;SDS011;2830;50.656;7.568;2023-03-05T15:28:18;14.45;;;7.43;;
5616;SDS011;2830;50.656;7.568;2023-03-05T15:30:45;13.40;;;5.93;;
5616;SDS011;2830;50.656;7.568;2023-03-05T15:33:13;19.38;;;6.13;;
5616;SDS011;2830;50.656;7.568;2023-03-05T15:35:42;14.07;;;7.15;;
5616;SDS011;2830;50.656;7.568;2023-03-05T15:38:09;13.98;;;6.07;;
5616;SDS011;2830;50.656;7.568;2023-03-05T15:40:36;12.95;;;5.88;;
5616;SDS011;2830;50.656;7.568;2023-03-05T15:43:04;13.93;;;6.90;;
5616;SDS011;2830;50.656;7.568;2023-03-05T15:45:31;18.25;;;7.13;;
5616;SDS011;2830;50.656;7.568;2023-03-05T15:47:58;21.15;;;7.22;;
5616;SDS011;2830;50.656;7.568;2023-03-05T15:50:26;15.48;;;6.55;;
5616;SDS011;2830;50.656;7.568;2023-03-05T15:52:53;15.30;;;6.32;;
5616;SDS011;2830;50.656;7.568;2023-03-05T15:55:21;12.90;;;5.90;;
5616;SDS011;2830;50.656;7.568;2023-03-05T15:57:49;12.90;;;5.90;;
5616;SDS011;2830;50.656;7.568;2023-03-05T16:00:28;17.00;;;6.25;;
5616;SDS011;2830;50.656;7.568;2023-03-05T16:02:56;12.38;;;6.07;;
5616;SDS011;2830;50.656;7.568;2023-03-05T16:05:23;13.85;;;5.80;;
5616;SDS011;2830;50.656;7.568;2023-03-05T16:07:50;15.32;;;6.65;;
5616;SDS011;2830;50.656;7.568;2023-03-05T16:10:19;14.10;;;6.63;;
5616;SDS011;2830;50.656;7.568;2023-03-05T16:12:49;15.18;;;6.57;;
5616;SDS011;2830;50.656;7.568;2023-03-05T16:15:20;14.05;;;6.10;;
5616;SDS011;2830;50.656;7.568;2023-03-05T16:17:47;18.67;;;7.18;;
5616;SDS011;2830;50.656;7.568;2023-03-05T16:20:18;14.05;;;6.45;;
5616;SDS011;2830;50.656;7.568;2023-03-05T16:22:45;14.85;;;6.93;;
5616;SDS011;2830;50.656;7.568;2023-03-05T16:25:12;17.08;;;6.55;;
5616;SDS011;2830;50.656;7.568;2023-03-05T16:27:38;15.45;;;6.00;;
5616;SDS011;2830;50.656;7.568;2023-03-05T16:30:05;15.23;;;6.70;;
5616;SDS011;2830;50.656;7.568;2023-03-05T16:32:33;13.40;;;7.05;;